createdAt,value
2023-05-02T00:00:15.652Z,5
2023-05-02T00:01:15.105Z,5
2023-05-02T00:02:15.952Z,6
2023-05-02T00:03:15.935Z,6
2023-05-02T00:04:15.536Z,6
2023-05-02T00:07:14.741Z,1
2023-05-02T00:08:15.092Z,1
2023-05-02T00:09:15.255Z,1
2023-05-02T00:10:15.512Z,1
2023-05-02T00:11:14.669Z,1
2023-05-02T00:12:15.005Z,6
2023-05-02T00:13:15.389Z,6
2023-05-02T00:14:15.317Z,6
2023-05-02T00:15:14.446Z,6
2023-05-02T00:16:15.107Z,6
2023-05-02T00:17:15.433Z,4
2023-05-02T00:18:16.022Z,4
2023-05-02T00:21:15.186Z,4
2023-05-02T00:22:15.511Z,3
2023-05-02T00:23:14.745Z,3
2023-05-02T00:24:15.066Z,3
2023-05-02T00:25:15.196Z,3
2023-05-02T00:26:15.258Z,3
2023-05-02T00:27:15.369Z,5
2023-05-02T00:28:14.678Z,5
2023-05-02T00:29:14.792Z,5
2023-05-02T00:30:15.490Z,5
2023-05-02T00:31:15.504Z,5
2023-05-02T00:32:14.643Z,1
2023-05-02T00:33:15.551Z,1
2023-05-02T00:36:14.235Z,1
2023-05-02T00:37:14.980Z,1
2023-05-02T00:38:15.094Z,1
2023-05-02T00:39:15.364Z,1
2023-05-02T00:40:14.789Z,1
2023-05-02T00:41:14.980Z,1
2023-05-02T00:42:15.373Z,3
2023-05-02T00:43:15.255Z,3
2023-05-02T00:44:14.802Z,3
2023-05-02T00:45:15.651Z,3
2023-05-02T00:46:15.289Z,3
2023-05-02T00:47:15.578Z,4
2023-05-02T00:49:14.933Z,4
2023-05-02T00:50:15.835Z,4
2023-05-02T00:51:15.607Z,4
2023-05-02T00:56:14.992Z,1
2023-05-02T00:57:15.275Z,1
2023-05-02T00:58:15.586Z,1
2023-05-02T00:59:14.574Z,1
2023-05-02T01:00:15.482Z,1
2023-05-02T01:01:15.484Z,1
2023-05-02T01:02:15.320Z,3
2023-05-02T01:03:15.711Z,3
2023-05-02T01:04:16.258Z,3
2023-05-02T01:05:15.413Z,3
2023-05-02T01:06:15.804Z,3
2023-05-02T01:07:14.676Z,4
2023-05-02T01:08:14.841Z,4
2023-05-02T01:09:15.235Z,4
2023-05-02T01:11:14.684Z,4
2023-05-02T01:12:15.033Z,6
2023-05-02T01:13:15.251Z,6
2023-05-02T01:14:14.557Z,6
2023-05-02T01:15:14.900Z,6
2023-05-02T01:16:15.335Z,6
2023-05-02T01:17:15.378Z,4
2023-05-02T01:18:14.707Z,4
2023-05-02T01:19:15.121Z,4
2023-05-02T01:20:15.514Z,4
2023-05-02T01:21:15.236Z,4
2023-05-02T01:25:15.067Z,6
2023-05-02T01:26:15.288Z,6
2023-05-02T01:27:15.438Z,4
2023-05-02T01:28:14.845Z,4
2023-05-02T01:29:14.682Z,4
2023-05-02T01:30:15.617Z,4
2023-05-02T01:31:15.612Z,4
2023-05-02T01:32:15.079Z,4
2023-05-02T01:33:15.626Z,4
2023-05-02T01:34:15.371Z,4
2023-05-02T01:40:14.767Z,4
2023-05-02T01:41:14.873Z,4
2023-05-02T01:42:15.144Z,4
2023-05-02T01:43:15.340Z,4
2023-05-02T01:44:14.838Z,4
2023-05-02T01:45:14.805Z,4
2023-05-02T01:46:15.184Z,4
2023-05-02T01:47:15.705Z,6
2023-05-02T01:49:14.956Z,6
2023-05-02T01:50:15.438Z,6
2023-05-02T01:51:15.333Z,6
2023-05-02T01:52:14.327Z,5
2023-05-02T01:53:15.345Z,5
2023-05-02T01:58:14.681Z,8
2023-05-02T01:59:14.988Z,8
2023-05-02T02:00:15.421Z,8
2023-05-02T02:01:15.657Z,8
2023-05-02T02:02:14.696Z,5
2023-05-02T02:03:15.308Z,5
2023-05-02T02:04:15.254Z,5
2023-05-02T02:06:15.439Z,5
2023-05-02T02:07:14.667Z,4
2023-05-02T02:08:15.371Z,4
2023-05-02T02:09:15.300Z,4
2023-05-02T02:10:15.513Z,4
2023-05-02T02:12:14.761Z,3
2023-05-02T02:13:15.357Z,3
2023-05-02T02:14:14.546Z,3
2023-05-02T02:15:14.719Z,3
2023-05-02T02:16:15.228Z,3
2023-05-02T02:17:16.059Z,6
2023-05-02T02:18:15.128Z,6
2023-05-02T02:21:14.728Z,6
2023-05-02T02:22:15.009Z,6
2023-05-02T02:23:15.472Z,6
2023-05-02T02:24:14.847Z,6
2023-05-02T02:25:15.091Z,6
2023-05-02T02:26:14.777Z,6
2023-05-02T02:27:15.105Z,6
2023-05-02T02:31:15.702Z,6
2023-05-02T02:32:15.725Z,7
2023-05-02T02:33:15.170Z,7
2023-05-02T02:34:14.922Z,7
2023-05-02T02:35:15.400Z,7
2023-05-02T02:36:15.449Z,7
2023-05-02T02:37:14.692Z,1
2023-05-02T02:38:14.887Z,1
2023-05-02T02:39:15.149Z,1
2023-05-02T02:40:15.745Z,1
2023-05-02T02:41:15.421Z,1
2023-05-02T02:49:15.456Z,4
2023-05-02T02:50:14.532Z,4
2023-05-02T02:51:14.833Z,4
2023-05-02T02:52:15.188Z,6
2023-05-02T02:53:15.428Z,6
2023-05-02T02:54:35.194Z,6
2023-05-02T02:57:14.126Z,7
2023-05-02T02:58:15.354Z,7
2023-05-02T02:59:14.480Z,7
2023-05-02T03:00:15.364Z,7
2023-05-02T03:01:14.919Z,7
2023-05-02T03:02:15.576Z,4
2023-05-02T03:03:15.226Z,4
2023-05-02T03:04:15.826Z,4
2023-05-02T03:06:15.363Z,4
2023-05-02T03:09:14.496Z,7
2023-05-02T03:10:14.908Z,7
2023-05-02T03:11:14.868Z,7
2023-05-02T03:12:15.115Z,3
2023-05-02T03:13:15.415Z,3
2023-05-02T03:14:15.588Z,3
2023-05-02T03:15:14.879Z,3
2023-05-02T03:16:15.363Z,3
2023-05-02T03:17:15.501Z,5
2023-05-02T03:18:15.486Z,5
2023-05-02T03:19:14.840Z,5
2023-05-02T03:20:15.492Z,5
2023-05-02T03:21:14.649Z,5
2023-05-02T03:22:14.927Z,5
2023-05-02T03:23:15.305Z,5
2023-05-02T03:24:15.719Z,5
2023-05-02T03:25:15.333Z,5
2023-05-02T03:26:14.748Z,5
2023-05-02T03:27:15.281Z,4
2023-05-02T03:28:15.578Z,4
2023-05-02T03:30:15.052Z,4
2023-05-02T03:31:15.558Z,4
2023-05-02T03:32:15.496Z,3
2023-05-02T03:33:15.647Z,3
2023-05-02T03:34:15.062Z,3
2023-05-02T03:35:15.578Z,3
2023-05-02T03:39:14.619Z,4
2023-05-02T03:40:14.969Z,4
2023-05-02T03:41:14.784Z,4
2023-05-02T03:42:15.388Z,4
2023-05-02T03:43:14.658Z,4
2023-05-02T03:44:15.055Z,4
2023-05-02T03:45:15.380Z,4
2023-05-02T03:46:15.105Z,4
2023-05-02T03:47:15.782Z,6
2023-05-02T03:49:14.850Z,6
2023-05-02T03:50:14.083Z,6
2023-05-02T03:51:15.369Z,6
2023-05-02T03:53:13.897Z,5
2023-05-02T03:54:15.409Z,5
2023-05-02T03:55:14.547Z,5
2023-05-02T03:56:15.239Z,5
2023-05-02T03:57:15.388Z,5
2023-05-02T03:58:15.203Z,5
2023-05-02T03:59:14.827Z,5
2023-05-02T04:00:15.661Z,5
2023-05-02T04:01:15.008Z,5
2023-05-02T04:02:15.902Z,6
2023-05-02T04:05:15.215Z,6
2023-05-02T04:06:15.735Z,6
2023-05-02T04:07:14.565Z,5
2023-05-02T04:08:15.217Z,5
2023-05-02T04:09:15.387Z,5
2023-05-02T04:10:15.843Z,5
2023-05-02T04:11:14.749Z,5
2023-05-02T04:12:15.075Z,1
2023-05-02T04:13:15.019Z,1
2023-05-02T04:14:15.618Z,1
2023-05-02T04:15:14.711Z,1
2023-05-02T04:16:15.015Z,1
2023-05-02T04:17:15.861Z,4
2023-05-02T04:18:14.951Z,4
2023-05-02T04:19:14.795Z,4
2023-05-02T04:21:15.437Z,4
2023-05-02T04:22:14.606Z,5
2023-05-02T04:23:14.817Z,5
2023-05-02T04:24:15.300Z,5
2023-05-02T04:25:15.596Z,5
2023-05-02T04:26:14.797Z,5
2023-05-02T04:27:17.435Z,5
2023-05-02T04:28:14.559Z,5
2023-05-02T04:29:14.952Z,5
2023-05-02T04:30:15.824Z,5
2023-05-02T04:32:14.633Z,6
2023-05-02T04:33:15.155Z,6
2023-05-02T04:34:15.361Z,6
2023-05-02T04:35:15.666Z,6
2023-05-02T04:36:14.727Z,6
2023-05-02T04:37:15.413Z,6
2023-05-02T04:38:15.396Z,6
2023-05-02T04:39:15.599Z,6
2023-05-02T04:40:14.737Z,6
2023-05-02T04:42:15.227Z,6
2023-05-02T04:43:14.230Z,6
2023-05-02T04:44:14.981Z,6
2023-05-02T04:45:15.249Z,6
2023-05-02T04:48:15.379Z,6
2023-05-02T04:49:13.935Z,6
2023-05-02T04:50:15.721Z,6
2023-05-02T04:51:17.672Z,6
2023-05-02T04:52:14.779Z,6
2023-05-02T04:53:15.036Z,6
2023-05-02T04:56:14.514Z,6
2023-05-02T04:57:14.818Z,11
2023-05-02T04:58:15.237Z,11
2023-05-02T04:59:15.282Z,11
2023-05-02T05:00:15.630Z,11
2023-05-02T05:01:15.155Z,11
2023-05-02T05:02:15.784Z,6
2023-05-02T05:03:15.983Z,6
2023-05-02T05:04:15.980Z,6
2023-05-02T05:05:15.246Z,6
2023-05-02T05:06:15.845Z,6
2023-05-02T05:08:15.058Z,7
2023-05-02T05:09:15.140Z,7
2023-05-02T05:10:16.042Z,7
2023-05-02T05:11:14.596Z,7
2023-05-02T05:12:14.889Z,8
2023-05-02T05:13:15.012Z,8
2023-05-02T05:14:15.168Z,8
2023-05-02T05:15:15.301Z,8
2023-05-02T05:16:14.940Z,8
2023-05-02T05:17:15.140Z,8
2023-05-02T05:18:15.851Z,8
2023-05-02T05:19:14.576Z,8
2023-05-02T05:20:16.129Z,8
2023-05-02T05:21:15.195Z,8
2023-05-02T05:22:15.563Z,6
2023-05-02T05:23:14.887Z,6
2023-05-02T05:24:14.924Z,6
2023-05-02T05:25:15.602Z,6
2023-05-02T05:26:15.145Z,6
2023-05-02T05:27:15.190Z,12
2023-05-02T05:28:14.629Z,12
2023-05-02T05:29:15.039Z,12
2023-05-02T05:30:15.830Z,12
2023-05-02T05:31:16.777Z,12
2023-05-02T05:32:15.969Z,8
2023-05-02T05:36:15.639Z,8
2023-05-02T05:37:14.706Z,8
2023-05-02T05:38:14.952Z,8
2023-05-02T05:39:14.803Z,8
2023-05-02T05:40:16.031Z,8
2023-05-02T05:41:15.662Z,8
2023-05-02T05:42:14.645Z,8
2023-05-02T05:43:14.870Z,8
2023-05-02T05:44:14.972Z,8
2023-05-02T05:45:14.721Z,8
2023-05-02T05:50:14.950Z,8
2023-05-02T05:51:14.791Z,8
2023-05-02T05:52:14.922Z,9
2023-05-02T05:53:15.086Z,9
2023-05-02T05:54:15.273Z,9
2023-05-02T05:55:14.711Z,9
2023-05-02T05:56:15.011Z,9
2023-05-02T05:57:15.419Z,8
2023-05-02T05:58:14.846Z,8
2023-05-02T05:59:15.097Z,8
2023-05-02T06:00:15.984Z,8
2023-05-02T06:01:14.641Z,8
2023-05-02T06:02:15.381Z,8
2023-05-02T06:04:16.061Z,8
2023-05-02T06:06:15.566Z,8
2023-05-02T06:07:15.092Z,8
2023-05-02T06:08:15.488Z,8
2023-05-02T06:11:15.200Z,8
2023-05-02T06:12:15.429Z,6
2023-05-02T06:13:15.769Z,6
2023-05-02T06:14:14.741Z,6
2023-05-02T06:15:15.042Z,6
2023-05-02T06:16:15.685Z,6
2023-05-02T06:17:14.472Z,5
2023-05-02T06:18:15.407Z,5
2023-05-02T06:19:15.050Z,5
2023-05-02T06:20:15.257Z,5
2023-05-02T06:21:15.397Z,5
2023-05-02T06:24:15.202Z,12
2023-05-02T06:25:15.546Z,12
2023-05-02T06:26:15.458Z,12
2023-05-02T06:27:14.826Z,5
2023-05-02T06:28:15.212Z,5
2023-05-02T06:29:15.778Z,5
2023-05-02T06:32:15.652Z,1
2023-05-02T06:33:15.717Z,1
2023-05-02T06:34:14.868Z,1
2023-05-02T06:35:15.158Z,1
2023-05-02T06:36:15.064Z,1
2023-05-02T06:37:15.440Z,7
2023-05-02T06:38:14.851Z,7
2023-05-02T06:39:15.022Z,7
2023-05-02T06:40:15.754Z,7
2023-05-02T06:41:18.097Z,7
2023-05-02T06:42:14.981Z,3
2023-05-02T06:43:15.381Z,3
2023-05-02T06:44:15.277Z,3
2023-05-02T06:45:14.563Z,3
2023-05-02T06:46:14.934Z,3
2023-05-02T06:47:15.876Z,14
2023-05-02T06:48:16.053Z,14
2023-05-02T06:49:14.583Z,14
2023-05-02T06:50:15.339Z,14
2023-05-02T06:51:15.463Z,14
2023-05-02T06:55:15.529Z,7
2023-05-02T06:56:14.641Z,7
2023-05-02T06:57:15.170Z,6
2023-05-02T06:58:15.654Z,6
2023-05-02T06:59:15.478Z,6
2023-05-02T07:00:15.627Z,6
2023-05-02T07:01:15.810Z,6
2023-05-02T07:03:15.300Z,6
2023-05-02T07:04:15.352Z,6
2023-05-02T07:05:15.489Z,6
2023-05-02T07:06:15.535Z,6
2023-05-02T07:07:14.483Z,8
2023-05-02T07:08:15.190Z,8
2023-05-02T07:09:15.411Z,8
2023-05-02T07:10:14.611Z,8
2023-05-02T07:11:14.645Z,8
2023-05-02T07:13:14.128Z,5
2023-05-02T07:14:15.262Z,5
2023-05-02T07:15:14.838Z,5
2023-05-02T07:16:14.275Z,5
2023-05-02T07:17:15.881Z,6
2023-05-02T07:18:14.927Z,6
2023-05-02T07:21:15.373Z,6
2023-05-02T07:22:14.902Z,4
2023-05-02T07:23:15.146Z,4
2023-05-02T07:24:14.684Z,4
2023-05-02T07:25:14.918Z,4
2023-05-02T07:27:15.353Z,5
2023-05-02T07:28:15.636Z,5
2023-05-02T07:29:14.914Z,5
2023-05-02T07:30:15.604Z,5
2023-05-02T07:31:14.729Z,5
2023-05-02T07:32:15.302Z,3
2023-05-02T07:33:15.480Z,3
2023-05-02T07:34:15.081Z,3
2023-05-02T07:35:15.572Z,3
2023-05-02T07:36:14.533Z,3
2023-05-02T07:37:15.047Z,7
2023-05-02T07:38:15.188Z,7
2023-05-02T07:39:15.392Z,7
2023-05-02T07:41:15.067Z,7
2023-05-02T07:42:15.282Z,3
2023-05-02T07:43:15.662Z,3
2023-05-02T07:44:15.034Z,3
2023-05-02T07:45:15.581Z,3
2023-05-02T07:48:14.796Z,6
2023-05-02T07:49:15.359Z,6
2023-05-02T07:50:15.673Z,6
2023-05-02T07:51:14.840Z,6
2023-05-02T07:52:15.089Z,3
2023-05-02T07:53:15.354Z,3
2023-05-02T07:54:15.175Z,3
2023-05-02T07:55:14.787Z,3
2023-05-02T07:56:14.841Z,3
2023-05-02T07:57:15.183Z,4
2023-05-02T07:58:15.236Z,4
2023-05-02T07:59:17.239Z,4
2023-05-02T08:00:15.088Z,4
2023-05-02T08:01:15.156Z,4
2023-05-02T08:02:15.391Z,6
2023-05-02T08:03:16.322Z,6
2023-05-02T08:04:16.532Z,6
2023-05-02T08:05:15.557Z,6
2023-05-02T08:06:15.813Z,6
2023-05-02T08:07:14.498Z,4
2023-05-02T08:08:14.843Z,4
2023-05-02T08:09:15.011Z,4
2023-05-02T08:10:16.075Z,4
2023-05-02T08:11:15.382Z,4
2023-05-02T08:12:14.738Z,4
2023-05-02T08:13:15.248Z,4
2023-05-02T08:14:15.069Z,4
2023-05-02T08:15:15.507Z,4
2023-05-02T08:17:14.875Z,6
2023-05-02T08:18:15.865Z,6
2023-05-02T08:20:15.489Z,6
2023-05-02T08:21:14.894Z,6
2023-05-02T08:22:15.124Z,6
2023-05-02T08:23:15.601Z,6
2023-05-02T08:24:14.618Z,6
2023-05-02T08:25:15.017Z,6
2023-05-02T08:26:15.150Z,6
2023-05-02T08:27:15.309Z,6
2023-05-02T08:28:15.623Z,6
2023-05-02T08:31:15.422Z,6
2023-05-02T08:32:15.955Z,6
2023-05-02T08:33:15.691Z,6
2023-05-02T08:34:14.771Z,6
2023-05-02T08:35:15.225Z,6
2023-05-02T08:38:15.119Z,8
2023-05-02T08:39:14.783Z,8
2023-05-02T08:40:16.023Z,8
2023-05-02T08:41:15.321Z,8
2023-05-02T08:42:15.559Z,7
2023-05-02T08:43:14.829Z,7
2023-05-02T08:44:15.070Z,7
2023-05-02T08:45:16.463Z,7
2023-05-02T08:47:14.786Z,6
2023-05-02T08:48:16.339Z,6
2023-05-02T08:49:14.783Z,6
2023-05-02T08:50:15.749Z,6
2023-05-02T08:51:15.111Z,6
2023-05-02T08:52:15.433Z,5
2023-05-02T08:53:14.763Z,5
2023-05-02T08:54:15.035Z,5
2023-05-02T08:55:15.778Z,5
2023-05-02T08:56:14.758Z,5
2023-05-02T08:57:14.619Z,11
2023-05-02T08:58:16.170Z,11
2023-05-02T08:59:15.376Z,11
2023-05-02T09:02:15.151Z,7
2023-05-02T09:03:15.370Z,7
2023-05-02T09:04:15.189Z,7
2023-05-02T09:05:15.630Z,7
2023-05-02T09:06:15.132Z,7
2023-05-02T09:07:16.284Z,6
2023-05-02T09:08:14.951Z,6
2023-05-02T09:09:17.098Z,6
2023-05-02T09:10:15.465Z,6
2023-05-02T09:12:14.954Z,6
2023-05-02T09:13:14.714Z,6
2023-05-02T09:14:15.190Z,6
2023-05-02T09:15:16.392Z,6
2023-05-02T09:16:15.527Z,6
2023-05-02T09:17:14.904Z,4
2023-05-02T09:18:14.954Z,4
2023-05-02T09:19:15.367Z,4
2023-05-02T09:20:15.684Z,4
2023-05-02T09:21:19.973Z,4
2023-05-02T09:28:14.769Z,4
2023-05-02T09:29:15.002Z,4
2023-05-02T09:30:15.156Z,4
2023-05-02T09:31:15.590Z,4
2023-05-02T09:32:15.254Z,5
2023-05-02T09:33:16.124Z,5
2023-05-02T09:34:15.330Z,5
2023-05-02T09:35:14.722Z,5
2023-05-02T09:36:14.722Z,5
2023-05-02T09:37:15.004Z,8
2023-05-02T09:38:15.034Z,8
2023-05-02T09:39:15.301Z,8
2023-05-02T09:40:14.824Z,8
2023-05-02T09:41:15.407Z,8
2023-05-02T09:43:14.705Z,4
2023-05-02T09:44:14.747Z,4
2023-05-02T09:45:15.210Z,4
2023-05-02T09:46:15.305Z,4
2023-05-02T09:47:15.295Z,9
2023-05-02T09:48:14.614Z,9
2023-05-02T09:49:14.891Z,9
2023-05-02T09:50:15.114Z,9
2023-05-02T09:51:15.371Z,9
2023-05-02T09:52:14.661Z,3
2023-05-02T09:53:15.177Z,3
2023-05-02T09:54:15.488Z,3
2023-05-02T09:55:15.368Z,3
2023-05-02T09:56:15.560Z,3
2023-05-02T09:57:14.930Z,3
2023-05-02T09:58:15.074Z,3
2023-05-02T09:59:15.447Z,3
2023-05-02T10:00:16.069Z,3
2023-05-02T10:03:16.152Z,4
2023-05-02T10:04:14.999Z,4
2023-05-02T10:05:15.595Z,4
2023-05-02T10:06:15.760Z,4
2023-05-02T10:07:14.864Z,1
2023-05-02T10:08:14.949Z,1
2023-05-02T10:09:20.864Z,1
2023-05-02T10:11:14.455Z,1
2023-05-02T10:12:14.479Z,12
2023-05-02T10:13:14.911Z,12
2023-05-02T10:14:15.653Z,12
2023-05-02T10:15:15.716Z,12
2023-05-02T10:16:15.077Z,12
2023-05-02T10:17:15.173Z,9
2023-05-02T10:18:15.679Z,9
2023-05-02T10:19:14.637Z,9
2023-05-02T10:20:14.821Z,9
2023-05-02T10:21:14.800Z,9
2023-05-02T10:22:15.125Z,8
2023-05-02T10:23:15.347Z,8
2023-05-02T10:24:14.832Z,8
2023-05-02T10:25:15.718Z,8
2023-05-02T10:28:14.768Z,11
2023-05-02T10:29:14.841Z,11
2023-05-02T10:30:15.515Z,11
2023-05-02T10:31:15.633Z,11
2023-05-02T10:32:15.117Z,7
2023-05-02T10:33:15.542Z,7
2023-05-02T10:34:15.210Z,7
2023-05-02T10:35:15.899Z,7
2023-05-02T10:36:14.598Z,7
2023-05-02T10:37:15.050Z,8
2023-05-02T10:38:15.392Z,8
2023-05-02T10:39:15.567Z,8
2023-05-02T10:40:15.382Z,8
2023-05-02T10:41:15.494Z,8
2023-05-02T10:42:15.629Z,9
2023-05-02T10:43:14.830Z,9
2023-05-02T10:44:14.914Z,9
2023-05-02T10:45:15.517Z,9
2023-05-02T10:46:15.661Z,9
2023-05-02T10:47:15.769Z,13
2023-05-02T10:48:14.817Z,13
2023-05-02T10:49:15.151Z,13
2023-05-02T10:50:15.306Z,13
2023-05-02T10:51:13.963Z,13
2023-05-02T10:52:15.240Z,18
2023-05-02T10:53:15.528Z,18
2023-05-02T10:54:14.561Z,18
2023-05-02T10:55:15.104Z,18
2023-05-02T10:56:15.150Z,18
2023-05-02T10:57:15.101Z,13
2023-05-02T10:58:15.109Z,13
2023-05-02T10:59:15.205Z,13
2023-05-02T11:00:15.433Z,13
2023-05-02T11:01:16.082Z,13
2023-05-02T11:02:17.775Z,14
2023-05-02T11:03:16.218Z,14
2023-05-02T11:04:15.117Z,14
2023-05-02T11:05:16.187Z,14
2023-05-02T11:07:14.848Z,11
2023-05-02T11:08:15.651Z,11
2023-05-02T11:09:14.610Z,11
2023-05-02T11:10:14.937Z,11
2023-05-02T11:11:15.324Z,11
2023-05-02T11:12:15.608Z,13
2023-05-02T11:13:14.764Z,13
2023-05-02T11:14:16.527Z,13
2023-05-02T11:15:16.897Z,13
2023-05-02T11:16:14.885Z,13
2023-05-02T11:17:15.313Z,11
2023-05-02T11:18:15.860Z,11
2023-05-02T11:20:14.577Z,11
2023-05-02T11:21:14.701Z,11
2023-05-02T11:22:14.862Z,15
2023-05-02T11:23:15.132Z,15
2023-05-02T11:24:14.489Z,15
2023-05-02T11:25:15.095Z,15
2023-05-02T11:26:14.675Z,15
2023-05-02T11:27:15.124Z,8
2023-05-02T11:28:15.428Z,8
2023-05-02T11:29:14.593Z,8
2023-05-02T11:30:15.192Z,8
2023-05-02T11:31:15.450Z,8
2023-05-02T11:32:14.861Z,9
2023-05-02T11:33:15.268Z,9
2023-05-02T11:34:15.273Z,9
2023-05-02T11:35:15.831Z,9
2023-05-02T11:36:15.014Z,9
2023-05-02T11:39:14.620Z,9
2023-05-02T11:40:14.899Z,9
2023-05-02T11:41:15.543Z,9
2023-05-02T11:42:14.976Z,8
2023-05-02T11:43:14.901Z,8
2023-05-02T11:44:15.114Z,8
2023-05-02T11:45:16.170Z,8
2023-05-02T11:46:15.545Z,8
2023-05-02T11:47:14.292Z,8
2023-05-02T11:48:15.104Z,8
2023-05-02T11:50:15.493Z,8
2023-05-02T11:51:14.734Z,8
2023-05-02T11:52:14.848Z,8
2023-05-02T11:53:15.396Z,8
2023-05-02T11:54:15.555Z,8
2023-05-02T11:55:16.855Z,8
2023-05-02T11:56:15.079Z,8
2023-05-02T11:57:15.128Z,7
2023-05-02T11:58:15.332Z,7
2023-05-02T11:59:14.706Z,7
2023-05-02T12:00:14.833Z,7
2023-05-02T12:01:16.075Z,7
2023-05-02T12:04:15.076Z,3
2023-05-02T12:05:15.845Z,3
2023-05-02T12:06:16.405Z,3
2023-05-02T12:07:17.538Z,8
2023-05-02T12:08:15.075Z,8
2023-05-02T12:09:15.448Z,8
2023-05-02T12:14:15.555Z,8
2023-05-02T12:15:15.163Z,8
2023-05-02T12:16:15.754Z,8
2023-05-02T12:17:15.555Z,7
2023-05-02T12:21:15.082Z,7
2023-05-02T12:22:15.313Z,1
2023-05-02T12:23:15.541Z,1
2023-05-02T12:24:14.969Z,1
2023-05-02T12:25:15.427Z,1
2023-05-02T12:26:15.132Z,1
2023-05-02T12:27:15.475Z,4
2023-05-02T12:28:14.709Z,4
2023-05-02T12:29:14.947Z,4
2023-05-02T12:30:15.474Z,4
2023-05-02T12:31:15.242Z,4
2023-05-02T12:32:15.634Z,8
2023-05-02T12:33:16.059Z,8
2023-05-02T12:34:14.795Z,8
2023-05-02T12:35:15.280Z,8
2023-05-02T12:36:14.679Z,8
2023-05-02T12:37:15.203Z,6
2023-05-02T12:40:15.361Z,6
2023-05-02T12:41:15.061Z,6
2023-05-02T12:42:15.137Z,5
2023-05-02T12:43:15.315Z,5
2023-05-02T12:44:15.390Z,5
2023-05-02T12:45:14.708Z,5
2023-05-02T12:46:15.321Z,5
2023-05-02T12:47:14.852Z,8
2023-05-02T12:48:14.979Z,8
2023-05-02T12:49:15.054Z,8
2023-05-02T12:50:15.888Z,8
2023-05-02T12:53:14.668Z,9
2023-05-02T12:54:15.221Z,9
2023-05-02T12:55:15.274Z,9
2023-05-02T12:56:15.578Z,9
2023-05-02T12:57:14.985Z,8
2023-05-02T12:58:15.229Z,8
2023-05-02T12:59:15.620Z,8
2023-05-02T13:00:14.710Z,8
2023-05-02T13:01:15.121Z,8
2023-05-02T13:02:15.170Z,3
2023-05-02T13:03:16.360Z,3
2023-05-02T13:04:15.252Z,3
2023-05-02T13:05:15.037Z,3
2023-05-02T13:11:14.842Z,4
2023-05-02T13:12:14.977Z,5
2023-05-02T13:13:15.156Z,5
2023-05-02T13:14:15.506Z,5
2023-05-02T13:15:15.147Z,5
2023-05-02T13:16:15.425Z,5
2023-05-02T13:17:16.132Z,7
2023-05-02T13:18:16.590Z,7
2023-05-02T13:19:14.758Z,7
2023-05-02T13:20:16.589Z,7
2023-05-02T13:21:14.641Z,7
2023-05-02T13:22:15.024Z,3
2023-05-02T13:23:15.205Z,3
2023-05-02T13:24:15.262Z,3
2023-05-02T13:30:19.672Z,6
2023-05-02T13:31:14.616Z,6
2023-05-02T13:32:14.975Z,1
2023-05-02T13:33:15.665Z,1
2023-05-02T13:35:14.885Z,1
2023-05-02T13:40:14.822Z,8
2023-05-02T13:41:15.273Z,8
2023-05-02T13:42:16.911Z,7
2023-05-02T13:43:15.198Z,7
2023-05-02T13:44:15.214Z,7
2023-05-02T13:45:15.437Z,7
2023-05-02T13:46:15.065Z,7
2023-05-02T13:47:15.448Z,4
2023-05-02T13:48:15.827Z,4
2023-05-02T13:49:14.606Z,4
2023-05-02T13:50:15.806Z,4
2023-05-02T13:51:15.180Z,4
2023-05-02T13:52:15.244Z,6
2023-05-02T13:53:15.563Z,6
2023-05-02T13:57:14.784Z,6
2023-05-02T13:58:14.960Z,6
2023-05-02T13:59:19.587Z,6
2023-05-02T14:00:15.819Z,6
2023-05-02T14:01:14.906Z,6
2023-05-02T14:02:15.101Z,7
2023-05-02T14:03:16.163Z,7
2023-05-02T14:04:16.452Z,7
2023-05-02T14:05:15.413Z,7
2023-05-02T14:06:14.564Z,7
2023-05-02T14:07:14.929Z,5
2023-05-02T14:08:15.222Z,5
2023-05-02T14:09:15.695Z,5
2023-05-02T14:10:14.914Z,5
2023-05-02T14:12:15.388Z,4
2023-05-02T14:13:14.690Z,4
2023-05-02T14:14:14.920Z,4
2023-05-02T14:15:15.022Z,4
2023-05-02T14:16:14.592Z,4
2023-05-02T14:17:14.738Z,6
2023-05-02T14:18:15.235Z,6
2023-05-02T14:19:15.271Z,6
2023-05-02T14:20:16.108Z,6
2023-05-02T14:24:14.530Z,8
2023-05-02T14:25:14.918Z,8
2023-05-02T14:26:15.543Z,8
2023-05-02T14:27:14.631Z,4
2023-05-02T14:28:15.179Z,4
2023-05-02T14:29:14.721Z,4
2023-05-02T14:30:16.161Z,4
2023-05-02T14:33:15.022Z,6
2023-05-02T14:34:17.770Z,6
2023-05-02T14:35:15.431Z,6
2023-05-02T14:36:14.915Z,6
2023-05-02T14:37:15.137Z,8
2023-05-02T14:38:15.187Z,8
2023-05-02T14:39:15.329Z,8
2023-05-02T14:40:15.284Z,8
2023-05-02T14:41:15.035Z,8
2023-05-02T14:42:15.318Z,6
2023-05-02T14:43:16.682Z,6
2023-05-02T14:44:14.613Z,6
2023-05-02T14:45:14.894Z,6
2023-05-02T14:46:14.771Z,6
2023-05-02T14:47:15.287Z,5
2023-05-02T14:48:15.451Z,5
2023-05-02T14:49:15.504Z,5
2023-05-02T14:50:15.410Z,5
2023-05-02T14:54:14.737Z,11
2023-05-02T14:55:13.936Z,11
2023-05-02T14:56:15.392Z,11
2023-05-02T14:57:15.775Z,9
2023-05-02T14:59:14.990Z,9
2023-05-02T15:00:16.592Z,9
2023-05-02T15:01:15.402Z,9
2023-05-02T15:02:15.801Z,3
2023-05-02T15:03:18.689Z,3
2023-05-02T15:04:19.076Z,3
2023-05-02T15:05:15.560Z,3
2023-05-02T15:06:15.787Z,3
2023-05-02T15:07:16.522Z,11
2023-05-02T15:08:14.865Z,11
2023-05-02T15:09:15.312Z,11
2023-05-02T15:10:15.931Z,11
2023-05-02T15:11:14.805Z,11
2023-05-02T15:12:15.210Z,11
2023-05-02T15:13:15.579Z,11
2023-05-02T15:15:14.750Z,11
2023-05-02T15:16:15.101Z,11
2023-05-02T15:17:15.127Z,4
2023-05-02T15:18:15.633Z,4
2023-05-02T15:19:15.141Z,4
2023-05-02T15:20:15.473Z,4
2023-05-02T15:21:15.297Z,4
2023-05-02T15:22:15.433Z,8
2023-05-02T15:23:14.726Z,8
2023-05-02T15:24:15.191Z,8
2023-05-02T15:26:14.890Z,8
2023-05-02T15:27:15.115Z,14
2023-05-02T15:28:15.426Z,14
2023-05-02T15:29:15.618Z,14
2023-05-02T15:30:17.101Z,14
2023-05-02T15:31:15.104Z,14
2023-05-02T15:32:15.717Z,15
2023-05-02T15:33:15.841Z,15
2023-05-02T15:34:14.846Z,15
2023-05-02T15:35:15.089Z,15
2023-05-02T15:38:15.134Z,7
2023-05-02T15:39:15.604Z,7
2023-05-02T15:40:15.888Z,7
2023-05-02T15:41:15.132Z,7
2023-05-02T15:42:15.343Z,1
2023-05-02T15:43:14.673Z,1
2023-05-02T15:44:15.063Z,1
2023-05-02T15:45:15.132Z,1
2023-05-02T15:46:15.789Z,1
2023-05-02T15:47:15.164Z,7
2023-05-02T15:51:16.006Z,7
2023-05-02T15:52:14.780Z,5
2023-05-02T15:53:14.976Z,5
2023-05-02T15:54:15.960Z,5
2023-05-02T15:57:14.820Z,12
2023-05-02T15:58:15.149Z,12
2023-05-02T15:59:15.409Z,12
2023-05-02T16:00:16.042Z,12
2023-05-02T16:01:14.941Z,12
2023-05-02T16:02:15.456Z,3
2023-05-02T16:03:17.170Z,3
2023-05-02T16:04:15.539Z,3
2023-05-02T16:05:14.867Z,3
2023-05-02T16:06:15.588Z,3
2023-05-02T16:07:15.172Z,3
2023-05-02T16:08:15.433Z,3
2023-05-02T16:09:14.688Z,3
2023-05-02T16:10:16.132Z,3
2023-05-02T16:13:14.442Z,3
2023-05-02T16:14:14.338Z,3
2023-05-02T16:16:15.363Z,3
2023-05-02T16:17:14.190Z,17
2023-05-02T16:18:14.948Z,17
2023-05-02T16:19:15.071Z,17
2023-05-02T16:20:17.979Z,17
2023-05-02T16:21:15.077Z,17
2023-05-02T16:22:15.746Z,21
2023-05-02T16:23:14.587Z,21
2023-05-02T16:24:15.134Z,21
2023-05-02T16:25:15.142Z,21
2023-05-02T16:26:15.813Z,21
2023-05-02T16:27:14.721Z,20
2023-05-02T16:28:15.172Z,20
2023-05-02T16:29:15.298Z,20
2023-05-02T16:30:16.562Z,20
2023-05-02T16:32:14.820Z,13
2023-05-02T16:33:15.082Z,13
2023-05-02T16:34:15.159Z,13
2023-05-02T16:35:15.780Z,13
2023-05-02T16:36:14.728Z,13
2023-05-02T16:37:16.790Z,12
2023-05-02T16:38:15.083Z,12
2023-05-02T16:39:15.345Z,12
2023-05-02T16:40:15.607Z,12
2023-05-02T16:41:15.274Z,12
2023-05-02T16:42:15.489Z,14
2023-05-02T16:43:14.610Z,14
2023-05-02T16:44:15.039Z,14
2023-05-02T16:45:15.351Z,14
2023-05-02T16:46:15.403Z,14
2023-05-02T16:47:16.331Z,15
2023-05-02T16:48:14.777Z,15
2023-05-02T16:49:14.875Z,15
2023-05-02T16:50:16.431Z,15
2023-05-02T16:51:17.211Z,15
2023-05-02T16:53:14.580Z,6
2023-05-02T16:54:15.090Z,6
2023-05-02T16:55:15.111Z,6
2023-05-02T16:56:15.069Z,6
2023-05-02T16:57:15.142Z,6
2023-05-02T16:58:15.506Z,6
2023-05-02T16:59:15.461Z,6
2023-05-02T17:00:15.355Z,6
2023-05-02T17:01:15.508Z,6
2023-05-02T17:02:16.140Z,5
2023-05-02T17:03:17.155Z,5
2023-05-02T17:04:14.907Z,5
2023-05-02T17:05:15.705Z,5
2023-05-02T17:06:15.289Z,5
2023-05-02T17:07:14.836Z,1
2023-05-02T17:09:15.363Z,1
2023-05-02T17:10:15.180Z,1
2023-05-02T17:11:15.023Z,1
2023-05-02T17:12:15.398Z,3
2023-05-02T17:13:15.658Z,3
2023-05-02T17:16:15.232Z,3
2023-05-02T17:17:15.736Z,4
2023-05-02T17:18:14.759Z,4
2023-05-02T17:19:14.687Z,4
2023-05-02T17:20:15.901Z,4
2023-05-02T17:21:16.911Z,4
2023-05-02T17:22:14.662Z,3
2023-05-02T17:23:15.064Z,3
2023-05-02T17:24:15.274Z,3
2023-05-02T17:25:15.444Z,3
2023-05-02T17:30:15.138Z,0
2023-05-02T17:31:15.706Z,0
2023-05-02T17:32:14.586Z,0
2023-05-02T17:33:15.279Z,0
2023-05-02T17:34:13.859Z,0
2023-05-02T17:35:15.388Z,0
2023-05-02T17:36:15.030Z,0
2023-05-02T17:37:15.176Z,1